Time;durP1;ratioP1;P1;durP2;ratioP2;P2;SDS_P1;SDS_P2;PMS_P1;PMS_P2;Temp;Humidity;BMP_temperature;BMP_pressure;BME280_temperature;BME280_humidity;BME280_pressure;Samples;Min_cycle;Max_cycle;Signal;HPM_P1;HPM_P2
2021/07/31 00:00:27;;;;;;;10.25;6.40;;;;;;;21.69;76.00;98875.28;4936936;29;20067;-68
2021/07/31 00:02:56;;;;;;;8.73;6.38;;;;;;;21.73;75.97;98871.59;4937221;29;20062;-68
2021/07/31 00:05:25;;;;;;;9.80;6.35;;;;;;;21.70;76.22;98870.00;4937182;29;20502;-68
2021/07/31 00:07:56;;;;;;;9.70;6.20;;;;;;;21.40;76.56;98868.34;4937320;29;20410;-68
2021/07/31 00:10:25;;;;;;;9.82;6.40;;;;;;;21.38;77.43;98871.84;4956172;29;20204;-68
2021/07/31 00:12:54;;;;;;;10.52;6.25;;;;;;;21.56;77.45;98874.31;4955696;28;20047;-68
2021/07/31 00:15:23;;;;;;;11.10;6.63;;;;;;;21.38;77.17;98870.22;4945254;29;20091;-68
2021/07/31 00:17:54;;;;;;;8.98;6.18;;;;;;;21.35;77.79;98882.41;4936973;29;20056;-68
2021/07/31 00:20:23;;;;;;;10.18;6.43;;;;;;;21.31;78.14;98875.72;4936996;29;20063;-68
2021/07/31 00:22:52;;;;;;;10.50;7.07;;;;;;;21.34;78.36;98875.56;4920261;29;20115;-68
2021/07/31 00:25:21;;;;;;;10.40;6.88;;;;;;;21.37;78.03;98879.75;4937072;29;20071;-68
2021/07/31 00:27:50;;;;;;;10.60;7.25;;;;;;;21.49;78.05;98873.00;4937013;29;20064;-68
2021/07/31 00:30:23;;;;;;;8.85;6.78;;;;;;;21.51;77.71;98878.94;4936563;29;20122;-68
2021/07/31 00:32:55;;;;;;;10.82;6.93;;;;;;;21.53;77.64;98883.13;4936509;29;20071;-69
2021/07/31 00:35:26;;;;;;;11.13;7.32;;;;;;;21.65;77.49;98878.97;4936563;29;20143;-68
2021/07/31 00:37:55;;;;;;;9.93;7.15;;;;;;;21.73;77.09;98880.22;4936679;29;20059;-68
2021/07/31 00:40:24;;;;;;;10.50;7.22;;;;;;;21.82;76.96;98882.25;4936488;29;20056;-68
2021/07/31 00:42:53;;;;;;;14.32;7.03;;;;;;;22.02;76.49;98881.97;4936586;29;20040;-68
2021/07/31 00:45:23;;;;;;;11.05;6.68;;;;;;;22.13;75.89;98878.69;4935364;29;20040;-68
2021/07/31 00:47:52;;;;;;;10.90;6.75;;;;;;;22.21;75.53;98871.28;4936670;29;20098;-68
2021/07/31 00:50:23;;;;;;;9.93;6.95;;;;;;;22.28;74.85;98867.38;4936666;29;20048;-68
2021/07/31 00:52:52;;;;;;;9.18;6.82;;;;;;;22.36;74.18;98862.50;4936673;29;20051;-68
2021/07/31 00:55:25;;;;;;;11.48;6.80;;;;;;;22.40;73.98;98856.22;4936689;29;20179;-68
2021/07/31 00:57:55;;;;;;;8.57;6.25;;;;;;;22.42;73.77;98854.34;4936459;29;20056;-68
2021/07/31 01:00:29;;;;;;;8.63;6.10;;;;;;;22.42;73.36;98836.16;4936715;29;20054;-68
2021/07/31 01:02:58;;;;;;;10.75;6.05;;;;;;;22.39;73.03;98841.53;4935198;29;20095;-67
2021/07/31 01:05:29;;;;;;;;;;;;;;;22.39;72.76;98835.50;4936594;29;20050;-67
2021/07/31 01:07:58;;;;;;;9.63;6.30;;;;;;;22.39;72.73;98825.94;4934015;29;19923;-68
2021/07/31 01:10:28;;;;;;;10.65;6.57;;;;;;;22.36;72.44;98825.31;4919309;29;20067;-67
2021/07/31 01:13:00;;;;;;;8.10;6.30;;;;;;;22.35;72.74;98819.25;4934915;29;20061;-67
2021/07/31 01:15:30;;;;;;;9.63;6.15;;;;;;;22.37;73.01;98821.75;4919319;29;20052;-67
2021/07/31 01:17:59;;;;;;;9.10;6.30;;;;;;;22.26;73.11;98814.63;4936173;29;20121;-67
2021/07/31 01:20:30;;;;;;;11.57;6.97;;;;;;;22.28;73.27;98817.13;4936193;29;20048;-67
2021/07/31 01:23:05;;;;;;;9.50;6.18;;;;;;;22.20;73.27;98815.00;4936174;29;20557;-67
2021/07/31 01:25:34;;;;;;;8.32;5.70;;;;;;;22.25;73.36;98814.72;4939846;29;20040;-67
2021/07/31 01:28:03;;;;;;;10.25;5.90;;;;;;;22.22;73.65;98815.72;4940319;29;20082;-68
2021/07/31 01:30:32;;;;;;;9.50;6.18;;;;;;;22.24;73.91;98816.50;4939905;29;20427;-68
2021/07/31 01:33:01;;;;;;;10.82;6.38;;;;;;;22.25;73.79;98823.34;4939803;29;20039;-68
2021/07/31 01:35:30;;;;;;;9.88;5.97;;;;;;;22.22;73.86;98813.13;4939929;29;20494;-67
2021/07/31 01:38:07;;;;;;;9.23;6.22;;;;;;;22.17;73.70;98812.56;4923056;29;20553;-68
2021/07/31 01:40:36;;;;;;;12.82;6.15;;;;;;;22.19;73.91;98812.50;4938740;29;20055;-68
2021/07/31 01:43:05;;;;;;;12.57;6.45;;;;;;;22.30;73.75;98817.88;4939865;29;20387;-67
2021/07/31 01:45:35;;;;;;;8.70;6.38;;;;;;;22.30;73.22;98816.09;4938988;29;20051;-68
2021/07/31 01:48:05;;;;;;;10.05;6.07;;;;;;;22.27;73.20;98821.50;4939788;29;20043;-68
2021/07/31 01:50:34;;;;;;;12.35;6.20;;;;;;;22.22;73.40;98839.13;4939669;29;20044;-68
2021/07/31 01:53:06;;;;;;;11.85;6.10;;;;;;;22.12;73.77;98851.03;4939736;29;20494;-68
2021/07/31 01:55:36;;;;;;;11.32;6.03;;;;;;;22.19;73.67;98839.34;4940038;29;20050;-67
2021/07/31 01:58:06;;;;;;;9.57;5.90;;;;;;;22.17;73.67;98848.16;4938509;29;20055;-67
2021/07/31 02:00:42;;;;;;;9.02;6.25;;;;;;;22.09;73.71;98843.44;4922885;29;20131;-68
2021/07/31 02:03:26;;;;;;;8.07;5.70;;;;;;;22.14;73.53;98846.59;4923928;29;20135;-68
2021/07/31 02:06:19;;;;;;;9.20;5.65;;;;;;;22.05;73.53;98852.34;4920990;29;20059;-67
2021/07/31 02:08:51;;;;;;;10.82;6.63;;;;;;;22.14;73.65;98856.97;4939429;29;20040;-67
2021/07/31 02:11:24;;;;;;;12.20;6.72;;;;;;;22.12;74.17;98931.63;4939256;29;20044;-68
2021/07/31 02:14:19;;;;;;;12.93;7.30;;;;;;;21.79;75.34;98936.16;4922022;29;20147;-67
2021/07/31 02:17:23;;;;;;;11.32;7.07;;;;;;;21.88;75.13;98938.28;4939111;29;20126;-67
2021/07/31 02:21:32;;;;;;;9.88;6.75;;;;;;;22.02;75.22;98946.09;4939173;29;20120;-67
2021/07/31 02:25:30;;;;;;;9.15;5.95;;;;;;;22.11;75.07;98979.34;4939380;29;20046;-67
2021/07/31 11:03:40;;;;;;;;;;;;;;;26.88;59.82;98975.94;4807468;29;20000;-71
2021/07/31 11:06:12;;;;;;;;;;;;;;;26.46;60.38;98970.47;4808964;29;19925;-70
2021/07/31 11:08:53;;;;;;;;;;;;;;;26.45;60.70;98976.63;4808811;29;19941;-70
2021/07/31 11:11:26;;;;;;;;;;;;;;;26.41;61.55;98974.38;4809102;29;20280;-71
2021/07/31 11:13:55;;;;;;;;;;;;;;;26.20;61.46;98971.59;4808535;29;19925;-71
2021/07/31 11:16:26;;;;;;;;;;;;;;;26.58;61.09;98972.13;4809010;29;20445;-71
2021/07/31 11:18:57;;;;;;;;;;;;;;;26.89;60.73;98952.28;4808766;29;19925;-71
2021/07/31 11:21:28;;;;;;;;;;;;;;;27.08;59.18;98949.84;4791734;29;20396;-70
2021/07/31 11:23:57;;;;;;;;;;;;;;;27.26;58.47;98947.53;4794534;29;20102;-71
2021/07/31 11:26:37;;;;;;;;;;;;;;;27.26;59.03;98947.53;4808618;29;19981;-71
2021/07/31 11:29:11;;;;;;;;;;;;;;;27.65;58.49;98949.56;4808859;29;19932;-71
2021/07/31 11:31:40;;;;;;;;;;;;;;;27.62;58.79;98947.19;4808494;29;19929;-71
2021/07/31 11:34:09;;;;;;;;;;;;;;;27.58;58.77;98945.78;4808433;29;20402;-71
2021/07/31 11:36:40;;;;;;;;;;;;;;;27.74;58.13;98942.72;4801474;29;19925;-71
2021/07/31 11:39:10;;;;;;;;;;;;;;;27.66;58.45;98946.00;4790416;30;19925;-71
2021/07/31 11:41:40;;;;;;;;;;;;;;;27.83;58.00;98937.53;4790291;30;19974;-71
2021/07/31 11:44:09;;;;;;;;;;;;;;;28.10;57.04;98938.88;4790263;30;19925;-71
2021/07/31 11:46:39;;;;;;;;;;;;;;;28.21;56.24;98941.41;4790447;30;20019;-71
2021/07/31 11:49:09;;;;;;;;;;;;;;;28.28;56.05;98942.56;4790820;30;20273;-71
2021/07/31 11:51:45;;;;;;;;;;;;;;;28.49;55.73;98940.72;4790330;30;19965;-71
2021/07/31 11:54:14;;;;;;;;;;;;;;;28.52;54.75;98935.19;4790439;30;19925;-71
2021/07/31 11:56:45;;;;;;;;;;;;;;;28.53;54.48;98936.84;4790077;30;19960;-71
2021/07/31 11:59:22;;;;;;;;;;;;;;;28.36;54.06;98942.75;4790208;29;19929;-71
2021/07/31 12:01:53;;;;;;;;;;;;;;;28.25;54.38;98932.31;4805935;29;19972;-71
2021/07/31 12:04:32;;;;;;;;;;;;;;;28.51;54.75;98936.16;4788648;29;19925;-71
2021/07/31 12:07:09;;;;;;;;;;;;;;;28.56;52.69;98947.94;4807131;29;19925;-71
2021/07/31 12:09:38;;;;;;;;;;;;;;;28.55;51.80;98954.13;4806802;29;19969;-71
2021/07/31 12:12:22;;;;;;;;;;;;;;;28.43;51.65;98954.38;4807745;29;19935;-71
2021/07/31 12:15:03;;;;;;;;;;;;;;;28.28;52.47;98942.56;4807803;29;19931;-71
2021/07/31 12:17:32;;;;;;;;;;;;;;;28.28;52.29;98942.56;4807776;29;19925;-71
2021/07/31 12:20:01;;;;;;;;;;;;;;;28.41;53.09;98951.06;4790295;29;20303;-71
2021/07/31 12:22:35;;;;;;;;;;;;;;;28.48;53.42;98946.94;4802920;29;20016;-70
2021/07/31 12:25:15;;;;;;;;;;;;;;;28.68;52.47;98956.56;4789887;30;19932;-71
2021/07/31 12:27:55;;;;;;;;;;;;;;;28.79;52.21;98948.63;4799927;29;19932;-71
2021/07/31 12:30:28;;;;;;;;;;;;;;;28.99;52.17;98955.56;4807410;29;19929;-71
2021/07/31 12:32:58;;;;;;;;;;;;;;;29.04;51.73;98956.00;4791123;29;20032;-71
2021/07/31 12:35:30;;;;;;;;;;;;;;;29.19;51.83;98959.94;4807335;29;19925;-71
2021/07/31 12:38:07;;;;;;;;;;;;;;;29.33;51.96;98957.88;4807412;29;19964;-71
2021/07/31 12:40:36;;;;;;;;;;;;;;;29.41;51.82;98965.91;4805557;29;19925;-71
2021/07/31 12:43:09;;;;;;;;;;;;;;;29.31;51.37;98965.06;4807309;29;20379;-71
2021/07/31 12:45:40;;;;;;;;;;;;;;;29.31;51.86;98965.06;4807239;29;19925;-71
2021/07/31 12:48:09;;;;;;;;;;;;;;;29.45;51.78;98962.03;4805401;29;19965;-71
2021/07/31 12:50:39;;;;;;;;;;;;;;;29.38;51.34;98961.75;4820764;29;20001;-71
2021/07/31 12:53:09;;;;;;;;;;;;;;;29.42;51.33;98951.81;4825402;29;19924;-71
2021/07/31 12:55:38;;;;;;;;;;;;;;;29.47;51.71;98947.78;4825631;29;19932;-71
2021/07/31 12:58:07;;;;;;;;;;;;;;;29.43;50.88;98940.31;4825462;29;19932;-71
2021/07/31 13:00:35;;;;;;;;;;;;;;;29.45;50.40;98933.09;4798318;29;19925;-71
2021/07/31 13:03:05;;;;;;;;;;;;;;;29.51;50.30;98933.41;4788704;30;20017;-71
2021/07/31 13:05:35;;;;;;;;;;;;;;;29.31;50.58;98944.88;4788933;30;19925;-71
2021/07/31 13:08:05;;;;;;;;;;;;;;;29.34;50.69;98941.13;4789036;30;20371;-71
2021/07/31 13:10:36;;;;;;;;;;;;;;;29.43;50.26;98948.19;4789034;30;20380;-71
2021/07/31 13:13:06;;;;;;;;;;;;;;;29.39;49.91;98946.81;4789143;30;19925;-71
2021/07/31 13:15:36;;;;;;;;;;;;;;;29.23;50.29;98941.28;4788968;30;19926;-71
2021/07/31 13:18:05;;;;;;;;;;;;;;;29.24;50.05;98942.91;4788929;30;19968;-71
2021/07/31 13:20:34;;;;;;;;;;;;;;;29.25;50.37;98941.97;4788701;30;19975;-71
2021/07/31 13:23:03;;;;;;;;;;;;;;;29.22;50.03;98940.44;4789151;30;20276;-71
2021/07/31 13:25:32;;;;;;;;;;;;;;;29.05;49.90;98947.16;4788799;29;20287;-71
2021/07/31 13:28:02;;;;;;;;;;;;;;;29.02;50.03;98944.78;4789101;30;20425;-71
2021/07/31 13:30:31;;;;;;;;;;;;;;;29.08;50.90;98948.69;4788996;30;20001;-71
2021/07/31 13:32:59;;;;;;;;;;;;;;;29.14;50.42;98946.34;4789009;30;19980;-71
2021/07/31 13:35:43;;;;;;;;;;;;;;;29.39;49.50;98947.66;4789130;30;19978;-71
2021/07/31 13:38:16;;;;;;;;;;;;;;;29.40;48.59;98943.19;4788940;30;20407;-71
2021/07/31 13:40:50;;;;;;;;;;;;;;;29.30;48.66;98947.66;4789085;30;19997;-71
2021/07/31 13:43:21;;;;;;;;;;;;;;;29.36;49.82;98944.47;4787673;30;19929;-71
2021/07/31 13:45:50;;;;;;;;;;;;;;;29.37;48.90;98943.50;4788751;29;19925;-71
2021/07/31 13:48:19;;;;;;;;;;;;;;;29.18;48.30;98950.38;4788968;30;20372;-71
2021/07/31 13:50:47;;;;;;;;;;;;;;;29.16;48.51;98941.78;4788500;30;19969;-71
2021/07/31 13:53:16;;;;;;;;;;;;;;;29.07;48.97;98942.59;4788522;29;19961;-72
2021/07/31 13:55:45;;;;;;;;;;;;;;;29.00;48.86;98940.63;4787334;30;19932;-71
2021/07/31 13:58:14;;;;;;;;;;;;;;;29.09;49.19;98953.78;4788612;30;19974;-71
2021/07/31 14:00:45;;;;;;;;;;;;;;;29.04;49.01;98953.38;4788500;30;19926;-71
2021/07/31 14:03:14;;;;;;;;;;;;;;;29.00;49.44;98951.16;4788433;30;19964;-71
2021/07/31 14:05:43;;;;;;;;;;;;;;;29.02;49.19;98950.06;4787319;30;20395;-71
2021/07/31 14:08:11;;;;;;;;;;;;;;;29.17;49.62;98953.97;4787129;30;19925;-71
2021/07/31 14:10:40;;;;;;;;;;;;;;;29.26;48.79;98946.25;4788319;30;20295;-71
2021/07/31 14:13:09;;;;;;;;;;;;;;;29.39;49.05;98946.81;4788351;30;19926;-71
2021/07/31 14:15:43;;;;;;;;;;;;;;;29.44;48.82;98944.59;4788505;30;19963;-71
2021/07/31 14:18:13;;;;;;;;;;;;;;;29.38;48.11;98939.88;4788309;30;19925;-71
2021/07/31 14:20:43;;;;;;;;;;;;;;;29.33;48.22;98942.09;4788451;30;19926;-71
2021/07/31 14:23:12;;;;;;;;;;;;;;;29.37;48.48;98938.25;4788650;30;19953;-71
2021/07/31 14:25:41;;;;;;;;;;;;;;;29.31;48.32;98939.63;4787121;30;19925;-71
2021/07/31 14:28:11;;;;;;;;;;;;;;;29.26;48.26;98933.94;4788147;30;19972;-71
2021/07/31 14:30:40;;;;;;;;;;;;;;;29.28;48.63;98928.53;4788150;30;20023;-71
2021/07/31 14:33:08;;;;;;;;;;;;;;;29.36;48.00;98921.63;4790456;30;19974;-71
2021/07/31 14:35:39;;;;;;;;;;;;;;;29.37;48.58;98930.34;4791677;30;19932;-71
2021/07/31 14:38:07;;;;;;;;;;;;;;;29.50;48.64;98930.88;4791503;30;20326;-71
2021/07/31 14:40:36;;;;;;;;;;;;;;;29.51;47.98;98930.78;4791241;30;20020;-71
2021/07/31 14:43:08;;;;;;;;;;;;;;;29.63;47.65;98928.81;4791237;30;20437;-71
2021/07/31 14:45:37;;;;;;;;;;;;;;;29.63;47.32;98918.31;4791464;30;19929;-71
2021/07/31 14:48:07;;;;;;;;;;;;;;;29.63;47.94;98918.31;4791185;29;20032;-71
2021/07/31 14:50:36;;;;;;;;;;;;;;;29.58;47.43;98910.00;4791268;30;19948;-71
2021/07/31 14:53:06;;;;;;;;;;;;;;;29.59;47.55;98916.91;4791528;30;19925;-71
2021/07/31 14:55:37;;;;;;;;;;;;;;;29.50;47.43;98912.47;4791009;30;20342;-71
2021/07/31 14:58:06;;;;;;;;;;;;;;;29.50;47.15;98907.22;4791291;30;20269;-71
2021/07/31 15:00:34;;;;;;;;;;;;;;;29.64;47.09;98906.78;4791156;29;19968;-71
2021/07/31 15:03:03;;;;;;;;;;;;;;;29.69;47.02;98899.31;4791216;30;19960;-71
2021/07/31 15:05:32;;;;;;;;;;;;;;;29.76;47.24;98897.78;4790081;30;19978;-71
2021/07/31 15:08:01;;;;;;;;;;;;;;;29.77;47.18;98895.06;4791043;30;19958;-71
2021/07/31 15:10:31;;;;;;;;;;;;;;;29.83;47.07;98893.63;4791152;30;19926;-71
2021/07/31 15:13:00;;;;;;;;;;;;;;;29.66;46.71;98892.53;4790779;30;19925;-71
2021/07/31 15:15:29;;;;;;;;;;;;;;;29.60;47.11;98887.00;4791352;30;20288;-71
2021/07/31 15:17:57;;;;;;;;;;;;;;;29.54;47.25;98890.19;4790629;30;19942;-71
2021/07/31 15:20:27;;;;;;;;;;;;;;;29.40;47.18;98885.34;4790652;30;20008;-71
2021/07/31 15:22:57;;;;;;;;;;;;;;;29.36;46.94;98889.22;4790975;30;20012;-71
2021/07/31 15:25:26;;;;;;;;;;;;;;;29.27;46.83;98876.91;4790654;30;19932;-71
2021/07/31 15:27:57;;;;;;;;;;;;;;;29.06;47.42;98880.47;4791162;30;19925;-71
2021/07/31 15:30:26;;;;;;;;;;;;;;;28.99;46.80;98883.78;4789504;30;19979;-71
2021/07/31 15:32:54;;;;;;;;;;;;;;;29.02;46.87;98878.25;4796342;29;19964;-71
2021/07/31 15:35:23;;;;;;;;;;;;;;;29.08;47.22;98870.63;4806325;29;19932;-70
2021/07/31 15:37:52;;;;;;;;;;;;;;;29.04;47.34;98879.78;4808179;29;19925;-72
2021/07/31 15:40:21;;;;;;;;;;;;;;;29.08;47.79;98878.53;4807671;29;19977;-71
2021/07/31 15:42:49;;;;;;;;;;;;;;;29.12;47.65;98866.78;4807387;29;20365;-71
2021/07/31 15:45:19;;;;;;;;;;;;;;;29.05;47.26;98868.31;4788588;29;19964;-71
2021/07/31 15:47:48;;;;;;;;;;;;;;;29.05;46.98;98876.19;4792219;29;20295;-70
2021/07/31 15:50:16;;;;;;;;;;;;;;;29.09;47.15;98867.06;4808339;29;20413;-71
2021/07/31 15:52:45;;;;;;;;;;;;;;;29.06;46.92;98862.06;4792044;29;19925;-72
2021/07/31 15:55:14;;;;;;;;;;;;;;;28.98;46.90;98861.94;4807981;29;19975;-71
2021/07/31 15:57:42;;;;;;;;;;;;;;;28.94;47.45;98857.91;4808401;29;19925;-72
2021/07/31 16:00:11;;;;;;;;;;;;;;;29.02;47.43;98859.84;4808062;29;19935;-71
2021/07/31 16:02:41;;;;;;;;;;;;;;;29.02;47.10;98862.47;4807864;29;19931;-70
2021/07/31 16:05:13;;;;;;;;;;;;;;;28.98;47.07;98861.94;4807949;29;19929;-71
2021/07/31 16:07:41;;;;;;;;;;;;;;;28.93;47.07;98861.53;4807849;29;19929;-71
2021/07/31 16:10:10;;;;;;;;;;;;;;;29.03;48.27;98856.28;4808220;29;19925;-72
2021/07/31 16:12:40;;;;;;;;;;;;;;;29.07;48.44;98858.47;4808110;29;19925;-72
2021/07/31 16:15:09;;;;;;;;;;;;;;;29.00;47.16;98862.63;4807685;29;19982;-71
2021/07/31 16:17:38;;;;;;;;;;;;;;;28.94;47.58;98852.66;4806492;29;20341;-71
2021/07/31 16:20:29;;;;;;;;;;;;;;;28.94;48.04;98847.38;4807925;29;19925;-71
2021/07/31 16:22:58;;;;;;;;;;;;;;;28.98;48.89;98847.97;4808303;29;20351;-70
2021/07/31 16:25:27;;;;;;;;;;;;;;;28.91;48.65;98852.94;4807512;29;19932;-71
2021/07/31 16:27:55;;;;;;;;;;;;;;;28.86;48.34;98852.53;4807564;29;19925;-71
2021/07/31 16:30:24;;;;;;;;;;;;;;;28.76;48.40;98851.66;4807534;29;20285;-71
2021/07/31 16:32:54;;;;;;;;;;;;;;;28.68;48.88;98848.88;4807717;29;19925;-71
2021/07/31 16:35:22;;;;;;;;;;;;;;;28.64;49.17;98844.03;4807956;29;19979;-71
2021/07/31 16:37:52;;;;;;;;;;;;;;;28.53;49.54;98843.13;4807503;29;20567;-71
2021/07/31 16:40:21;;;;;;;;;;;;;;;28.45;50.62;98840.38;4807502;29;20372;-71
2021/07/31 16:42:50;;;;;;;;;;;;;;;28.33;51.30;98851.09;4791292;29;20390;-72
2021/07/31 16:45:19;;;;;;;;;;;;;;;28.18;52.56;98855.03;4807355;29;20360;-70
2021/07/31 16:47:48;;;;;;;;;;;;;;;28.11;52.17;98860.00;4807590;29;19925;-71
2021/07/31 16:50:17;;;;;;;;;;;;;;;27.98;52.78;98855.91;4807407;29;19925;-72
2021/07/31 16:52:45;;;;;;;;;;;;;;;27.84;53.48;98857.88;4807544;29;19981;-71
2021/07/31 16:55:16;;;;;;;;;;;;;;;27.82;51.91;98856.34;4790306;29;19929;-71
2021/07/31 16:57:44;;;;;;;;;;;;;;;27.83;51.18;98853.59;4807216;29;20443;-71
2021/07/31 17:00:14;;;;;;;;;;;;;;;27.81;51.79;98850.28;4807079;29;20043;-72
2021/07/31 17:02:42;;;;;;;;;;;;;;;27.73;54.09;98865.84;4806910;29;19964;-71
2021/07/31 17:05:11;;;;;;;;;;;;;;;27.54;55.78;98868.34;4807404;29;19925;-71
2021/07/31 17:07:40;;;;;;;;;;;;;;;27.44;54.68;98869.22;4807154;29;20443;-72
2021/07/31 17:10:10;;;;;;;;;;;;;;;27.44;53.79;98871.84;4807278;29;20016;-71
2021/07/31 17:12:41;;;;;;;;;;;;;;;27.39;54.69;98874.00;4807023;29;20448;-71
2021/07/31 17:15:10;;;;;;;;;;;;;;;27.26;56.48;98880.22;4806872;29;19925;-71
2021/07/31 17:17:39;;;;;;;;;;;;;;;27.12;57.15;98871.81;4807243;29;19967;-71
2021/07/31 17:20:09;;;;;;;;;;;;;;;27.08;56.66;98867.78;4807138;29;19968;-71
2021/07/31 17:22:38;;;;;;;;;;;;;;;26.97;57.74;98868.63;4807230;29;19925;-71
2021/07/31 17:25:08;;;;;;;;;;;;;;;26.83;58.83;98873.31;4806780;29;19965;-72
2021/07/31 17:27:36;;;;;;;;;;;;;;;26.72;60.15;98878.56;4791092;29;20015;-72
2021/07/31 17:30:07;;;;;;;;;;;;;;;26.60;60.71;98878.59;4806818;29;20376;-72
2021/07/31 17:32:37;;;;;;;;;;;;;;;26.52;61.37;98867.03;4807395;29;19954;-72
2021/07/31 17:35:08;;;;;;;;;;;;;;;26.37;62.03;98871.69;4807058;29;19996;-71
2021/07/31 17:37:36;;;;;;;;;;;;;;;26.32;61.78;98871.22;4806925;29;20363;-70
2021/07/31 17:40:06;;;;;;;;;;;;;;;26.18;63.06;98879.31;4806766;29;19925;-72
2021/07/31 17:42:34;;;;;;;;;;;;;;;26.15;63.51;98879.56;4806929;29;19925;-71
2021/07/31 17:45:04;;;;;;;;;;;;;;;26.06;63.65;98880.22;4807037;29;19929;-71
2021/07/31 17:47:34;;;;;;;;;;;;;;;26.00;63.98;98875.47;4806735;29;19933;-71
2021/07/31 17:50:04;;;;;;;;;;;;;;;25.98;64.33;98877.38;4806658;29;19936;-71
2021/07/31 17:52:32;;;;;;;;;;;;;;;25.90;64.38;98877.97;4806698;29;19929;-71
2021/07/31 17:55:01;;;;;;;;;;;;;;;25.85;64.70;98881.84;4806878;29;19925;-71
2021/07/31 17:57:31;;;;;;;;;;;;;;;25.79;64.88;98882.34;4806582;29;20288;-71
2021/07/31 18:00:00;;;;;;;;;;;;;;;25.71;64.94;98882.91;4806675;29;19932;-71
2021/07/31 18:02:38;;;;;;;;;;;;;;;25.64;65.09;98879.09;4806502;29;19925;-71
2021/07/31 18:05:08;;;;;;;;;;;;;;;25.63;64.94;98879.19;4806612;29;19929;-71
2021/07/31 18:07:37;;;;;;;;;;;;;;;25.59;64.29;98881.22;4809214;29;20445;-72
2021/07/31 18:10:06;;;;;;;;;;;;;;;25.51;64.65;98888.78;4809560;29;19932;-71
2021/07/31 18:12:35;;;;;;;;;;;;;;;25.38;65.18;98885.41;4810028;29;19929;-71
2021/07/31 18:15:04;;;;;;;;;;;;;;;25.28;65.41;98882.63;4810072;29;19925;-71
2021/07/31 18:17:33;;;;;;;;;;;;;;;25.18;65.25;98881.63;4809770;29;20029;-71
2021/07/31 18:20:05;;;;;;;;;;;;;;;25.11;65.51;98885.63;4810084;29;19929;-71
2021/07/31 18:22:33;;;;;;;;;;;;;;;25.07;65.53;98889.41;4808171;29;19936;-71
2021/07/31 18:25:02;;;;;;;;;;;;;;;25.06;65.55;98894.75;4809354;29;19925;-71
2021/07/31 18:27:31;;;;;;;;;;;;;;;25.08;65.41;98895.44;4809790;29;19925;-71
2021/07/31 18:30:00;;;;;;;;;;;;;;;25.06;64.89;98892.97;4809595;29;19932;-71
2021/07/31 18:32:28;;;;;;;;;;;;;;;24.94;65.49;98899.06;4809935;29;19924;-71
2021/07/31 18:34:57;;;;;;;;;;;;;;;24.69;66.09;98899.09;4809520;29;19925;-71
2021/07/31 18:37:28;;;;;;;;;;;;;;;24.59;66.39;98898.09;4809088;29;20063;-71
2021/07/31 18:39:57;;;;;;;;;;;;;;;24.43;66.92;98898.34;4809253;29;20289;-71
2021/07/31 18:42:25;;;;;;;;;;;;;;;24.41;67.33;98912.41;4809407;29;19924;-71
2021/07/31 18:44:56;;;;;;;;;;;;;;;24.40;67.53;98900.34;4809427;29;20353;-71
2021/07/31 18:47:24;;;;;;;;;;;;;;;24.38;67.77;98896.97;4809664;29;19925;-71
2021/07/31 18:49:53;;;;;;;;;;;;;;;24.32;67.81;98900.03;4809314;29;19936;-71
2021/07/31 18:52:22;;;;;;;;;;;;;;;24.18;68.28;98907.97;4809207;29;19925;-71
2021/07/31 18:54:52;;;;;;;;;;;;;;;24.10;68.58;98915.47;4809520;29;19982;-71
2021/07/31 18:57:20;;;;;;;;;;;;;;;24.05;68.93;98904.47;4808398;29;19925;-71
2021/07/31 18:59:49;;;;;;;;;;;;;;;23.98;69.26;98902.31;4809324;29;19925;-71
2021/07/31 19:02:18;;;;;;;;;;;;;;;23.99;69.43;98914.38;4808975;29;19925;-71
2021/07/31 19:04:47;;;;;;;;;;;;;;;24.05;69.75;98913.13;4809036;29;19982;-71
2021/07/31 19:07:15;;;;;;;;;;;;;;;24.02;69.98;98912.53;4809293;29;19925;-71
2021/07/31 19:09:44;;;;;;;;;;;;;;;23.87;70.74;98915.19;4809007;29;19928;-71
2021/07/31 19:12:15;;;;;;;;;;;;;;;23.90;71.26;98925.44;4808916;29;20019;-71
2021/07/31 19:14:44;;;;;;;;;;;;;;;23.87;71.57;98930.03;4808891;29;20351;-71
2021/07/31 19:17:13;;;;;;;;;;;;;;;23.82;71.69;98932.13;4808898;29;20535;-71
2021/07/31 19:19:42;;;;;;;;;;;;;;;23.74;72.40;98939.59;4808827;29;19924;-71
2021/07/31 19:22:10;;;;;;;;;;;;;;;23.61;72.89;98944.78;4808730;29;20407;-71
2021/07/31 19:24:39;;;;;;;;;;;;;;;23.61;73.19;98947.38;4808889;29;19925;-71
2021/07/31 19:27:07;;;;;;;;;;;;;;;23.60;73.14;98950.94;4808612;29;19967;-71
2021/07/31 19:29:38;;;;;;;;;;;;;;;23.53;73.63;98952.28;4808573;29;19932;-71
2021/07/31 19:32:07;;;;;;;;;;;;;;;23.36;73.78;98952.53;4808609;29;19925;-71
2021/07/31 19:34:36;;;;;;;;;;;;;;;23.32;74.41;98949.22;4808798;29;20368;-71
2021/07/31 19:37:04;;;;;;;;;;;;;;;;;;4807941;29;20443;-71
2021/07/31 19:39:33;;;;;;;;;;;;;;;23.05;75.08;98956.22;4808425;29;19932;-71
2021/07/31 19:42:02;;;;;;;;;;;;;;;23.13;75.30;98953.13;4808283;29;20281;-71
2021/07/31 19:44:31;;;;;;;;;;;;;;;23.09;75.28;98956.84;4808344;29;19925;-71
2021/07/31 19:47:01;;;;;;;;;;;;;;;23.06;75.54;98951.84;4808316;29;19926;-71
2021/07/31 19:49:30;;;;;;;;;;;;;;;23.00;75.87;98954.81;4808259;29;19974;-71
2021/07/31 19:51:58;;;;;;;;;;;;;;;22.93;76.35;98961.34;4808321;29;19925;-71
2021/07/31 19:54:28;;;;;;;;;;;;;;;22.93;76.21;98966.56;4808179;29;20376;-71
2021/07/31 19:56:56;;;;;;;;;;;;;;;22.89;76.53;98972.88;4808291;29;19932;-71
2021/07/31 19:59:25;;;;;;;;;;;;;;;22.93;76.53;98977.81;4808034;29;19925;-71
2021/07/31 20:01:54;;;;;;;;;;;;;;;23.05;76.42;98984.84;4807691;29;19929;-71
2021/07/31 20:04:24;;;;;;;;;;;;;;;23.06;75.90;98983.91;4806813;29;20376;-71
2021/07/31 20:06:53;;;;;;;;;;;;;;;23.07;75.93;98992.56;4807396;29;20356;-71
2021/07/31 20:09:22;;;;;;;;;;;;;;;23.07;75.74;98990.78;4807726;29;19928;-71
2021/07/31 20:11:50;;;;;;;;;;;;;;;23.02;75.67;98986.78;4807880;29;19925;-71
2021/07/31 20:14:19;;;;;;;;;;;;;;;22.90;75.60;98987.56;4807794;29;19925;-71
2021/07/31 20:16:48;;;;;;;;;;;;;;;22.52;75.82;98982.91;4807799;29;19925;-71
2021/07/31 20:19:17;;;;;;;;;;;;;;;22.30;76.79;98982.53;4807754;29;20357;-71
2021/07/31 20:21:47;;;;;;;;;;;;;;;22.32;77.33;98991.06;4808567;29;20271;-71
2021/07/31 20:24:16;;;;;;;;;;;;;;;22.32;77.48;98993.66;4807705;29;19925;-71
2021/07/31 20:26:45;;;;;;;;;;;;;;;22.35;77.68;98996.09;4806490;29;19929;-71
2021/07/31 20:29:14;;;;;;;;;;;;;;;22.31;77.51;98988.56;4807342;29;19925;-71
2021/07/31 20:31:43;;;;;;;;;;;;;;;22.21;77.60;98988.28;4791159;29;19931;-71
2021/07/31 20:34:12;;;;;;;;;;;;;;;22.32;77.88;98985.84;4807826;29;19925;-71
2021/07/31 20:36:40;;;;;;;;;;;;;;;22.43;77.62;98988.69;4807594;29;19932;-71
2021/07/31 20:39:11;;;;;;;;;;;;;;;22.25;77.07;98992.34;4807737;29;19967;-71
2021/07/31 20:41:39;;;;;;;;;;;;;;;22.02;77.71;98987.69;4808031;29;20257;-71
2021/07/31 20:44:08;;;;;;;;;;;;;;;22.10;77.96;98975.03;4807358;29;19998;-71
2021/07/31 20:46:39;;;;;;;;;;;;;;;22.12;77.92;98987.97;4807536;29;20008;-71
2021/07/31 20:49:08;;;;;;;;;;;;;;;22.05;78.03;98982.31;4807885;29;19932;-71
2021/07/31 20:51:36;;;;;;;;;;;;;;;22.11;78.30;98981.09;4807581;29;19968;-71
2021/07/31 20:54:06;;;;;;;;;;;;;;;22.24;78.34;98993.31;4807500;29;20347;-71
2021/07/31 20:56:36;;;;;;;;;;;;;;;22.30;78.12;98987.72;4807083;29;19972;-71
2021/07/31 20:59:05;;;;;;;;;;;;;;;22.36;78.07;98987.34;4806087;29;20372;-71
2021/07/31 21:01:33;;;;;;;;;;;;;;;22.41;77.83;98987.91;4807154;29;19931;-71
2021/07/31 21:04:02;;;;;;;;;;;;;;;22.43;77.61;98988.69;4807724;29;20297;-71
2021/07/31 21:06:31;;;;;;;;;;;;;;;22.40;77.45;98985.41;4807368;29;19925;-71
2021/07/31 21:08:59;;;;;;;;;;;;;;;22.41;77.29;98990.50;4806987;29;19964;-71
2021/07/31 21:11:28;;;;;;;;;;;;;;;22.40;77.05;98994.06;4807335;29;19925;-71
2021/07/31 21:13:58;;;;;;;;;;;;;;;22.34;77.02;98989.19;4807299;29;19928;-71
2021/07/31 21:16:26;;;;;;;;;;;;;;;22.25;77.18;98996.72;4807508;29;19968;-71
2021/07/31 21:18:55;;;;;;;;;;;;;;;22.24;77.21;98998.50;4805836;29;20445;-71
2021/07/31 21:21:25;;;;;;;;;;;;;;;22.19;77.09;99003.13;4807254;29;19925;-71
2021/07/31 21:23:54;;;;;;;;;;;;;;;22.23;77.11;99012.41;4807234;29;19925;-71